Osteen, Florida
Current Conditions -  °F | °C
As of 5:53 PM on Wednesday 26 Nov 2014 (Local Time) from KSFB Reporting Station
Clear Clear  
Wind Chill: 55°   Ceiling: Unl
Heat Index: 55°   Visibility: 10mi
Dew Point: 47°   Wind: 3mph
Humidity: 74%   Direction: 260°W
Pressure: 30.16"   Gusts: NA
Location:  28.85°N, 81.16°W
Report Text: KSFB 262253Z 26003KT 10SM CLR 13/08 A3016 RMK AO2 SLP212 T01280083
Loading
Personal Weather Stations






























Interactive Weather Map New forecast layout! Learn more

10-Day Weather Forecast

Advertisements
Track Severe Weather on mobile